sensor_id;sensor_type;location;lat;lon;timestamp;temperature;humidity
10431;DHT22;5262;59.958;17.726;2023-07-13T00:01:30;14.70;99.90
10431;DHT22;5262;59.958;17.726;2023-07-13T00:03:57;14.60;99.90
10431;DHT22;5262;59.958;17.726;2023-07-13T00:06:23;14.60;99.90
10431;DHT22;5262;59.958;17.726;2023-07-13T00:08:49;14.50;99.90
10431;DHT22;5262;59.958;17.726;2023-07-13T00:11:16;14.50;99.90
10431;DHT22;5262;59.958;17.726;2023-07-13T00:13:42;14.30;99.90
10431;DHT22;5262;59.958;17.726;2023-07-13T00:16:10;14.30;99.90
10431;DHT22;5262;59.958;17.726;2023-07-13T00:18:36;14.20;99.90
10431;DHT22;5262;59.958;17.726;2023-07-13T00:21:03;14.20;99.90
10431;DHT22;5262;59.958;17.726;2023-07-13T00:23:37;14.20;99.90
10431;DHT22;5262;59.958;17.726;2023-07-13T00:26:05;14.20;99.90
10431;DHT22;5262;59.958;17.726;2023-07-13T00:28:31;14.30;99.90
10431;DHT22;5262;59.958;17.726;2023-07-13T00:30:57;14.30;99.90
10431;DHT22;5262;59.958;17.726;2023-07-13T00:33:23;14.30;99.90
10431;DHT22;5262;59.958;17.726;2023-07-13T00:35:49;14.40;99.90
10431;DHT22;5262;59.958;17.726;2023-07-13T00:38:15;14.40;99.90
10431;DHT22;5262;59.958;17.726;2023-07-13T00:40:41;14.50;99.90
10431;DHT22;5262;59.958;17.726;2023-07-13T00:43:19;14.50;99.90
10431;DHT22;5262;59.958;17.726;2023-07-13T00:48:12;14.40;99.90
10431;DHT22;5262;59.958;17.726;2023-07-13T00:50:40;14.40;99.90
10431;DHT22;5262;59.958;17.726;2023-07-13T00:53:06;14.40;99.90
10431;DHT22;5262;59.958;17.726;2023-07-13T00:55:33;14.30;99.90
10431;DHT22;5262;59.958;17.726;2023-07-13T00:57:59;14.20;99.90
10431;DHT22;5262;59.958;17.726;2023-07-13T01:00:25;14.20;99.90
10431;DHT22;5262;59.958;17.726;2023-07-13T01:02:52;14.30;99.90
10431;DHT22;5262;59.958;17.726;2023-07-13T01:05:21;14.40;99.90
10431;DHT22;5262;59.958;17.726;2023-07-13T01:07:49;14.30;99.90
10431;DHT22;5262;59.958;17.726;2023-07-13T01:10:16;14.40;99.90
10431;DHT22;5262;59.958;17.726;2023-07-13T01:12:42;14.40;99.90
10431;DHT22;5262;59.958;17.726;2023-07-13T01:15:34;14.50;99.90
10431;DHT22;5262;59.958;17.726;2023-07-13T01:18:01;14.40;99.90
10431;DHT22;5262;59.958;17.726;2023-07-13T01:20:27;14.40;99.90
10431;DHT22;5262;59.958;17.726;2023-07-13T01:22:52;14.30;99.90
10431;DHT22;5262;59.958;17.726;2023-07-13T01:25:20;14.30;99.90
10431;DHT22;5262;59.958;17.726;2023-07-13T01:27:45;14.30;99.90
10431;DHT22;5262;59.958;17.726;2023-07-13T01:30:11;14.30;99.90
10431;DHT22;5262;59.958;17.726;2023-07-13T01:32:37;14.40;99.90
10431;DHT22;5262;59.958;17.726;2023-07-13T01:35:03;14.40;99.90
10431;DHT22;5262;59.958;17.726;2023-07-13T01:37:28;14.40;99.90
10431;DHT22;5262;59.958;17.726;2023-07-13T01:39:59;14.40;99.90
10431;DHT22;5262;59.958;17.726;2023-07-13T01:42:24;14.30;99.90
10431;DHT22;5262;59.958;17.726;2023-07-13T01:44:50;14.30;99.90
10431;DHT22;5262;59.958;17.726;2023-07-13T01:47:15;14.30;99.90
10431;DHT22;5262;59.958;17.726;2023-07-13T01:49:41;14.30;99.90
10431;DHT22;5262;59.958;17.726;2023-07-13T01:52:07;14.30;99.90
10431;DHT22;5262;59.958;17.726;2023-07-13T01:54:33;14.30;99.90
10431;DHT22;5262;59.958;17.726;2023-07-13T01:56:59;14.20;99.90
10431;DHT22;5262;59.958;17.726;2023-07-13T01:59:25;14.30;99.90
10431;DHT22;5262;59.958;17.726;2023-07-13T02:01:50;14.10;99.90
10431;DHT22;5262;59.958;17.726;2023-07-13T02:04:16;14.10;99.90
10431;DHT22;5262;59.958;17.726;2023-07-13T02:06:42;14.00;99.90
10431;DHT22;5262;59.958;17.726;2023-07-13T02:09:07;14.00;99.90
10431;DHT22;5262;59.958;17.726;2023-07-13T02:11:33;14.00;99.90
10431;DHT22;5262;59.958;17.726;2023-07-13T02:14:00;13.90;99.90
10431;DHT22;5262;59.958;17.726;2023-07-13T02:16:27;13.90;99.90
10431;DHT22;5262;59.958;17.726;2023-07-13T02:18:53;13.90;99.90
10431;DHT22;5262;59.958;17.726;2023-07-13T02:21:21;13.80;99.90
10431;DHT22;5262;59.958;17.726;2023-07-13T02:23:46;13.80;99.90
10431;DHT22;5262;59.958;17.726;2023-07-13T02:26:13;13.80;99.90
10431;DHT22;5262;59.958;17.726;2023-07-13T02:28:38;13.80;99.90
10431;DHT22;5262;59.958;17.726;2023-07-13T02:31:13;13.80;99.90
10431;DHT22;5262;59.958;17.726;2023-07-13T02:33:39;13.70;99.90
10431;DHT22;5262;59.958;17.726;2023-07-13T02:36:05;13.80;99.90
10431;DHT22;5262;59.958;17.726;2023-07-13T02:38:35;13.70;99.90
10431;DHT22;5262;59.958;17.726;2023-07-13T02:41:02;13.70;99.90
10431;DHT22;5262;59.958;17.726;2023-07-13T02:43:29;13.70;99.90
10431;DHT22;5262;59.958;17.726;2023-07-13T02:45:55;13.60;99.90
10431;DHT22;5262;59.958;17.726;2023-07-13T02:48:21;13.60;99.90
10431;DHT22;5262;59.958;17.726;2023-07-13T02:50:46;13.60;99.90
10431;DHT22;5262;59.958;17.726;2023-07-13T02:53:12;13.60;99.90
10431;DHT22;5262;59.958;17.726;2023-07-13T02:55:38;13.50;99.90
10431;DHT22;5262;59.958;17.726;2023-07-13T02:58:05;13.40;99.90
10431;DHT22;5262;59.958;17.726;2023-07-13T03:00:31;13.40;99.90
10431;DHT22;5262;59.958;17.726;2023-07-13T03:02:56;13.50;99.90
10431;DHT22;5262;59.958;17.726;2023-07-13T03:05:23;13.30;99.90
10431;DHT22;5262;59.958;17.726;2023-07-13T03:07:48;13.30;99.90
10431;DHT22;5262;59.958;17.726;2023-07-13T03:10:14;13.30;99.90
10431;DHT22;5262;59.958;17.726;2023-07-13T03:12:41;13.30;99.90
10431;DHT22;5262;59.958;17.726;2023-07-13T03:15:07;13.30;99.90
10431;DHT22;5262;59.958;17.726;2023-07-13T03:17:33;13.40;99.90
10431;DHT22;5262;59.958;17.726;2023-07-13T03:19:59;13.40;99.90
10431;DHT22;5262;59.958;17.726;2023-07-13T03:22:24;13.40;99.90
10431;DHT22;5262;59.958;17.726;2023-07-13T03:24:50;13.40;99.90
10431;DHT22;5262;59.958;17.726;2023-07-13T03:27:17;13.50;99.90
10431;DHT22;5262;59.958;17.726;2023-07-13T03:29:43;13.50;99.90
10431;DHT22;5262;59.958;17.726;2023-07-13T03:32:09;13.60;99.90
10431;DHT22;5262;59.958;17.726;2023-07-13T03:34:35;13.60;99.90
10431;DHT22;5262;59.958;17.726;2023-07-13T03:37:00;13.60;99.90
10431;DHT22;5262;59.958;17.726;2023-07-13T03:39:26;13.70;99.90
10431;DHT22;5262;59.958;17.726;2023-07-13T03:41:52;13.70;99.90
10431;DHT22;5262;59.958;17.726;2023-07-13T03:44:18;13.70;99.90
10431;DHT22;5262;59.958;17.726;2023-07-13T03:46:44;13.60;99.90
10431;DHT22;5262;59.958;17.726;2023-07-13T03:49:10;13.70;99.90
10431;DHT22;5262;59.958;17.726;2023-07-13T03:51:36;13.70;99.90
10431;DHT22;5262;59.958;17.726;2023-07-13T03:54:02;13.70;99.90
10431;DHT22;5262;59.958;17.726;2023-07-13T03:56:28;13.70;99.90
10431;DHT22;5262;59.958;17.726;2023-07-13T03:58:55;13.70;99.90
10431;DHT22;5262;59.958;17.726;2023-07-13T04:01:23;13.80;99.90
10431;DHT22;5262;59.958;17.726;2023-07-13T04:03:49;13.80;99.90
10431;DHT22;5262;59.958;17.726;2023-07-13T04:06:21;13.90;99.90
10431;DHT22;5262;59.958;17.726;2023-07-13T04:08:50;13.90;99.90
10431;DHT22;5262;59.958;17.726;2023-07-13T04:11:16;13.90;99.90
10431;DHT22;5262;59.958;17.726;2023-07-13T04:13:42;14.00;99.90
10431;DHT22;5262;59.958;17.726;2023-07-13T04:16:08;14.10;99.90
10431;DHT22;5262;59.958;17.726;2023-07-13T04:18:33;14.10;99.90
10431;DHT22;5262;59.958;17.726;2023-07-13T04:20:59;14.20;99.90
10431;DHT22;5262;59.958;17.726;2023-07-13T04:23:24;14.10;99.90
10431;DHT22;5262;59.958;17.726;2023-07-13T04:25:52;14.20;99.90
10431;DHT22;5262;59.958;17.726;2023-07-13T04:28:20;14.20;99.90
10431;DHT22;5262;59.958;17.726;2023-07-13T04:30:46;14.30;99.90
10431;DHT22;5262;59.958;17.726;2023-07-13T04:33:12;14.30;99.90
10431;DHT22;5262;59.958;17.726;2023-07-13T04:35:38;14.30;99.90
10431;DHT22;5262;59.958;17.726;2023-07-13T04:38:03;14.40;99.90
10431;DHT22;5262;59.958;17.726;2023-07-13T04:40:29;14.40;99.90
10431;DHT22;5262;59.958;17.726;2023-07-13T04:42:55;14.40;99.90
10431;DHT22;5262;59.958;17.726;2023-07-13T04:45:21;14.50;99.90
10431;DHT22;5262;59.958;17.726;2023-07-13T04:47:47;14.50;99.90
10431;DHT22;5262;59.958;17.726;2023-07-13T04:50:13;14.60;99.90
10431;DHT22;5262;59.958;17.726;2023-07-13T04:52:44;14.70;99.90
10431;DHT22;5262;59.958;17.726;2023-07-13T04:55:10;14.90;99.90
10431;DHT22;5262;59.958;17.726;2023-07-13T04:57:36;15.00;99.90
10431;DHT22;5262;59.958;17.726;2023-07-13T05:00:02;15.10;99.90
10431;DHT22;5262;59.958;17.726;2023-07-13T05:02:32;15.10;99.90
10431;DHT22;5262;59.958;17.726;2023-07-13T05:04:59;15.10;99.90
10431;DHT22;5262;59.958;17.726;2023-07-13T05:07:25;15.20;99.90
10431;DHT22;5262;59.958;17.726;2023-07-13T05:09:51;15.30;99.90
10431;DHT22;5262;59.958;17.726;2023-07-13T05:12:17;15.40;99.90
10431;DHT22;5262;59.958;17.726;2023-07-13T05:14:43;15.40;99.90
10431;DHT22;5262;59.958;17.726;2023-07-13T05:17:08;15.30;99.90
10431;DHT22;5262;59.958;17.726;2023-07-13T05:19:34;15.40;99.90
10431;DHT22;5262;59.958;17.726;2023-07-13T05:22:00;15.50;99.90
10431;DHT22;5262;59.958;17.726;2023-07-13T05:24:26;15.60;99.90
10431;DHT22;5262;59.958;17.726;2023-07-13T05:26:52;15.70;99.90
10431;DHT22;5262;59.958;17.726;2023-07-13T05:29:19;15.90;99.90
10431;DHT22;5262;59.958;17.726;2023-07-13T05:31:45;16.00;99.90
10431;DHT22;5262;59.958;17.726;2023-07-13T05:34:10;16.10;99.90
10431;DHT22;5262;59.958;17.726;2023-07-13T05:36:36;16.10;99.90
10431;DHT22;5262;59.958;17.726;2023-07-13T05:39:03;16.30;99.90
10431;DHT22;5262;59.958;17.726;2023-07-13T05:41:29;16.30;99.90
10431;DHT22;5262;59.958;17.726;2023-07-13T05:43:54;16.20;99.90
10431;DHT22;5262;59.958;17.726;2023-07-13T05:46:20;16.20;99.90
10431;DHT22;5262;59.958;17.726;2023-07-13T05:48:46;16.10;99.90
10431;DHT22;5262;59.958;17.726;2023-07-13T05:51:12;16.10;99.90
10431;DHT22;5262;59.958;17.726;2023-07-13T05:53:37;16.10;99.90
10431;DHT22;5262;59.958;17.726;2023-07-13T05:56:03;15.90;99.90
10431;DHT22;5262;59.958;17.726;2023-07-13T05:58:29;15.90;99.90
10431;DHT22;5262;59.958;17.726;2023-07-13T06:01:07;15.80;99.90
10431;DHT22;5262;59.958;17.726;2023-07-13T06:03:34;15.70;99.90
10431;DHT22;5262;59.958;17.726;2023-07-13T06:05:59;15.70;99.90
10431;DHT22;5262;59.958;17.726;2023-07-13T06:08:26;15.50;99.90
10431;DHT22;5262;59.958;17.726;2023-07-13T06:10:52;15.60;99.90
10431;DHT22;5262;59.958;17.726;2023-07-13T06:13:17;15.60;99.90
10431;DHT22;5262;59.958;17.726;2023-07-13T06:15:48;15.60;99.90
10431;DHT22;5262;59.958;17.726;2023-07-13T06:18:14;15.60;99.90
10431;DHT22;5262;59.958;17.726;2023-07-13T06:20:40;15.60;99.90
10431;DHT22;5262;59.958;17.726;2023-07-13T06:23:05;15.70;99.90
10431;DHT22;5262;59.958;17.726;2023-07-13T06:25:31;15.70;99.90
10431;DHT22;5262;59.958;17.726;2023-07-13T06:27:57;15.70;99.90
10431;DHT22;5262;59.958;17.726;2023-07-13T06:30:22;15.60;99.90
10431;DHT22;5262;59.958;17.726;2023-07-13T06:32:49;15.70;99.90
10431;DHT22;5262;59.958;17.726;2023-07-13T06:35:14;15.60;99.90
10431;DHT22;5262;59.958;17.726;2023-07-13T06:37:40;15.60;99.90
10431;DHT22;5262;59.958;17.726;2023-07-13T06:40:06;15.70;99.90
10431;DHT22;5262;59.958;17.726;2023-07-13T06:42:32;15.70;99.90
10431;DHT22;5262;59.958;17.726;2023-07-13T06:44:57;15.80;99.90
10431;DHT22;5262;59.958;17.726;2023-07-13T06:47:23;15.90;99.90
10431;DHT22;5262;59.958;17.726;2023-07-13T06:49:49;16.00;99.90
10431;DHT22;5262;59.958;17.726;2023-07-13T06:52:14;16.10;99.90
10431;DHT22;5262;59.958;17.726;2023-07-13T06:54:40;16.10;99.90
10431;DHT22;5262;59.958;17.726;2023-07-13T06:57:06;16.20;99.90
10431;DHT22;5262;59.958;17.726;2023-07-13T06:59:31;16.20;99.90
10431;DHT22;5262;59.958;17.726;2023-07-13T07:01:57;16.30;99.90
10431;DHT22;5262;59.958;17.726;2023-07-13T07:04:22;16.30;99.90
10431;DHT22;5262;59.958;17.726;2023-07-13T07:06:48;16.50;99.90
10431;DHT22;5262;59.958;17.726;2023-07-13T07:09:13;16.60;99.90
10431;DHT22;5262;59.958;17.726;2023-07-13T07:11:41;16.80;99.90
10431;DHT22;5262;59.958;17.726;2023-07-13T07:14:08;16.80;99.90
10431;DHT22;5262;59.958;17.726;2023-07-13T07:16:34;16.90;99.90
10431;DHT22;5262;59.958;17.726;2023-07-13T07:18:59;16.80;99.90
10431;DHT22;5262;59.958;17.726;2023-07-13T07:21:25;16.90;99.90
10431;DHT22;5262;59.958;17.726;2023-07-13T07:23:52;16.90;99.90
10431;DHT22;5262;59.958;17.726;2023-07-13T07:26:17;16.90;99.90
10431;DHT22;5262;59.958;17.726;2023-07-13T07:28:43;17.00;99.90
10431;DHT22;5262;59.958;17.726;2023-07-13T07:31:09;17.00;99.90
10431;DHT22;5262;59.958;17.726;2023-07-13T07:33:35;17.10;99.90
10431;DHT22;5262;59.958;17.726;2023-07-13T07:36:01;17.20;99.90
10431;DHT22;5262;59.958;17.726;2023-07-13T07:38:27;17.90;99.90
10431;DHT22;5262;59.958;17.726;2023-07-13T07:40:52;18.20;99.90
10431;DHT22;5262;59.958;17.726;2023-07-13T07:43:18;18.00;99.90
10431;DHT22;5262;59.958;17.726;2023-07-13T07:45:45;18.10;99.90
10431;DHT22;5262;59.958;17.726;2023-07-13T07:48:10;18.30;99.90
10431;DHT22;5262;59.958;17.726;2023-07-13T07:50:36;19.70;99.90
10431;DHT22;5262;59.958;17.726;2023-07-13T07:53:03;20.70;99.90
10431;DHT22;5262;59.958;17.726;2023-07-13T07:55:33;20.20;99.90
10431;DHT22;5262;59.958;17.726;2023-07-13T07:57:58;19.90;99.90
10431;DHT22;5262;59.958;17.726;2023-07-13T08:00:24;19.70;99.90
10431;DHT22;5262;59.958;17.726;2023-07-13T08:02:50;19.40;99.90
10431;DHT22;5262;59.958;17.726;2023-07-13T08:05:16;19.00;99.90
10431;DHT22;5262;59.958;17.726;2023-07-13T08:07:41;18.80;99.90
10431;DHT22;5262;59.958;17.726;2023-07-13T08:10:08;19.20;99.90
10431;DHT22;5262;59.958;17.726;2023-07-13T08:12:35;19.50;99.90
10431;DHT22;5262;59.958;17.726;2023-07-13T08:15:00;20.00;99.90
10431;DHT22;5262;59.958;17.726;2023-07-13T08:17:26;19.60;99.90
10431;DHT22;5262;59.958;17.726;2023-07-13T08:19:52;20.30;99.90
10431;DHT22;5262;59.958;17.726;2023-07-13T08:22:18;21.00;99.90
10431;DHT22;5262;59.958;17.726;2023-07-13T08:24:44;20.80;99.90
10431;DHT22;5262;59.958;17.726;2023-07-13T08:27:10;20.50;99.90
10431;DHT22;5262;59.958;17.726;2023-07-13T08:29:37;20.40;99.90
10431;DHT22;5262;59.958;17.726;2023-07-13T08:32:04;20.20;99.90
10431;DHT22;5262;59.958;17.726;2023-07-13T08:34:30;21.90;99.90
10431;DHT22;5262;59.958;17.726;2023-07-13T08:36:55;23.80;99.70
10431;DHT22;5262;59.958;17.726;2023-07-13T08:39:21;24.90;94.80
10431;DHT22;5262;59.958;17.726;2023-07-13T08:41:51;25.70;92.10
10431;DHT22;5262;59.958;17.726;2023-07-13T08:44:33;25.60;89.70
10431;DHT22;5262;59.958;17.726;2023-07-13T08:47:02;26.20;90.20
10431;DHT22;5262;59.958;17.726;2023-07-13T08:49:28;26.40;86.90
10431;DHT22;5262;59.958;17.726;2023-07-13T08:52:02;25.30;86.90
10431;DHT22;5262;59.958;17.726;2023-07-13T08:54:44;26.50;84.40
10431;DHT22;5262;59.958;17.726;2023-07-13T08:57:17;27.00;77.60
10431;DHT22;5262;59.958;17.726;2023-07-13T08:59:44;26.90;78.70
10431;DHT22;5262;59.958;17.726;2023-07-13T09:05:17;27.10;75.50
10431;DHT22;5262;59.958;17.726;2023-07-13T09:13:03;27.10;69.40
10431;DHT22;5262;59.958;17.726;2023-07-13T09:15:37;24.60;73.00
10431;DHT22;5262;59.958;17.726;2023-07-13T09:20:56;23.40;83.50
10431;DHT22;5262;59.958;17.726;2023-07-13T09:23:26;23.10;82.10
10431;DHT22;5262;59.958;17.726;2023-07-13T09:26:02;23.20;81.50
10431;DHT22;5262;59.958;17.726;2023-07-13T09:28:34;22.60;80.80
10431;DHT22;5262;59.958;17.726;2023-07-13T09:31:14;22.40;82.30
10431;DHT22;5262;59.958;17.726;2023-07-13T09:33:40;22.30;84.50
10431;DHT22;5262;59.958;17.726;2023-07-13T09:36:19;22.70;83.50
10431;DHT22;5262;59.958;17.726;2023-07-13T09:38:45;24.40;79.80
10431;DHT22;5262;59.958;17.726;2023-07-13T09:44:11;26.80;72.80
10431;DHT22;5262;59.958;17.726;2023-07-13T09:46:38;26.80;72.60
10431;DHT22;5262;59.958;17.726;2023-07-13T09:49:04;27.30;68.90
10431;DHT22;5262;59.958;17.726;2023-07-13T09:51:30;26.80;67.30
10431;DHT22;5262;59.958;17.726;2023-07-13T09:53:56;26.30;69.10
10431;DHT22;5262;59.958;17.726;2023-07-13T09:56:27;27.50;67.40
10431;DHT22;5262;59.958;17.726;2023-07-13T09:58:55;27.50;65.80
10431;DHT22;5262;59.958;17.726;2023-07-13T10:01:37;26.20;66.10
10431;DHT22;5262;59.958;17.726;2023-07-13T10:04:16;26.50;66.20
10431;DHT22;5262;59.958;17.726;2023-07-13T10:06:44;26.90;70.40
10431;DHT22;5262;59.958;17.726;2023-07-13T10:09:14;27.20;66.30
10431;DHT22;5262;59.958;17.726;2023-07-13T10:11:40;27.20;67.00
10431;DHT22;5262;59.958;17.726;2023-07-13T10:14:17;27.50;65.00
10431;DHT22;5262;59.958;17.726;2023-07-13T10:16:45;27.40;63.20
10431;DHT22;5262;59.958;17.726;2023-07-13T10:19:24;28.00;65.70
10431;DHT22;5262;59.958;17.726;2023-07-13T10:21:56;28.70;62.90
10431;DHT22;5262;59.958;17.726;2023-07-13T10:24:24;28.10;62.30
10431;DHT22;5262;59.958;17.726;2023-07-13T10:27:12;26.00;65.60
10431;DHT22;5262;59.958;17.726;2023-07-13T10:29:52;25.90;70.50
10431;DHT22;5262;59.958;17.726;2023-07-13T10:32:22;26.40;66.40
10431;DHT22;5262;59.958;17.726;2023-07-13T10:34:49;26.10;67.30
10431;DHT22;5262;59.958;17.726;2023-07-13T10:37:26;25.40;66.30
10431;DHT22;5262;59.958;17.726;2023-07-13T10:39:55;26.10;65.10
10431;DHT22;5262;59.958;17.726;2023-07-13T10:42:31;25.40;65.00
10431;DHT22;5262;59.958;17.726;2023-07-13T10:44:58;24.70;67.90
10431;DHT22;5262;59.958;17.726;2023-07-13T10:47:24;25.30;68.50
10431;DHT22;5262;59.958;17.726;2023-07-13T10:49:54;26.50;64.80
10431;DHT22;5262;59.958;17.726;2023-07-13T11:03:31;26.20;65.00
10431;DHT22;5262;59.958;17.726;2023-07-13T11:13:56;27.00;61.80
10431;DHT22;5262;59.958;17.726;2023-07-13T11:18:51;25.90;63.10
10431;DHT22;5262;59.958;17.726;2023-07-13T11:21:18;25.40;62.60
10431;DHT22;5262;59.958;17.726;2023-07-13T11:23:51;26.00;62.90
10431;DHT22;5262;59.958;17.726;2023-07-13T11:26:43;26.60;60.50
10431;DHT22;5262;59.958;17.726;2023-07-13T11:31:55;26.30;60.90
10431;DHT22;5262;59.958;17.726;2023-07-13T11:34:36;25.50;63.50
10431;DHT22;5262;59.958;17.726;2023-07-13T11:37:03;24.20;64.80
10431;DHT22;5262;59.958;17.726;2023-07-13T11:39:32;24.00;67.70
10431;DHT22;5262;59.958;17.726;2023-07-13T11:42:03;23.90;68.60
10431;DHT22;5262;59.958;17.726;2023-07-13T11:44:33;24.40;66.10
10431;DHT22;5262;59.958;17.726;2023-07-13T11:47:08;24.40;65.80
10431;DHT22;5262;59.958;17.726;2023-07-13T11:49:44;24.70;64.00
10431;DHT22;5262;59.958;17.726;2023-07-13T11:52:33;24.60;65.90
10431;DHT22;5262;59.958;17.726;2023-07-13T11:55:00;24.90;66.00
10431;DHT22;5262;59.958;17.726;2023-07-13T11:57:36;24.80;67.60
10431;DHT22;5262;59.958;17.726;2023-07-13T12:00:09;25.30;66.00
10431;DHT22;5262;59.958;17.726;2023-07-13T12:02:39;25.80;65.80
10431;DHT22;5262;59.958;17.726;2023-07-13T12:05:10;25.60;64.40
10431;DHT22;5262;59.958;17.726;2023-07-13T12:07:38;24.90;65.80
10431;DHT22;5262;59.958;17.726;2023-07-13T12:13:00;24.90;66.40
10431;DHT22;5262;59.958;17.726;2023-07-13T12:15:40;25.30;65.00
10431;DHT22;5262;59.958;17.726;2023-07-13T12:18:21;25.40;64.10
10431;DHT22;5262;59.958;17.726;2023-07-13T12:20:49;25.40;67.00
10431;DHT22;5262;59.958;17.726;2023-07-13T12:23:35;25.30;64.00
10431;DHT22;5262;59.958;17.726;2023-07-13T12:26:03;25.30;67.10
10431;DHT22;5262;59.958;17.726;2023-07-13T12:28:36;25.60;68.30
10431;DHT22;5262;59.958;17.726;2023-07-13T12:31:05;25.80;64.30
10431;DHT22;5262;59.958;17.726;2023-07-13T12:33:32;25.90;62.00
10431;DHT22;5262;59.958;17.726;2023-07-13T12:36:03;26.20;62.70
10431;DHT22;5262;59.958;17.726;2023-07-13T12:38:31;26.60;61.80
10431;DHT22;5262;59.958;17.726;2023-07-13T12:40:58;26.40;65.20
10431;DHT22;5262;59.958;17.726;2023-07-13T12:43:25;25.90;65.50
10431;DHT22;5262;59.958;17.726;2023-07-13T12:46:20;25.30;63.20
10431;DHT22;5262;59.958;17.726;2023-07-13T12:48:57;25.00;67.30
10431;DHT22;5262;59.958;17.726;2023-07-13T12:51:27;24.70;64.80
10431;DHT22;5262;59.958;17.726;2023-07-13T12:54:15;24.50;68.50
10431;DHT22;5262;59.958;17.726;2023-07-13T12:56:42;24.20;67.00
10431;DHT22;5262;59.958;17.726;2023-07-13T12:59:17;24.50;66.00
10431;DHT22;5262;59.958;17.726;2023-07-13T13:01:43;24.20;67.30
10431;DHT22;5262;59.958;17.726;2023-07-13T13:04:09;23.90;66.60
10431;DHT22;5262;59.958;17.726;2023-07-13T13:06:36;24.30;66.90
10431;DHT22;5262;59.958;17.726;2023-07-13T13:09:03;24.90;64.20
10431;DHT22;5262;59.958;17.726;2023-07-13T13:11:30;24.40;66.10
10431;DHT22;5262;59.958;17.726;2023-07-13T13:13:56;24.10;66.10
10431;DHT22;5262;59.958;17.726;2023-07-13T13:16:29;24.20;69.70
10431;DHT22;5262;59.958;17.726;2023-07-13T13:18:59;23.90;67.70
10431;DHT22;5262;59.958;17.726;2023-07-13T13:21:26;24.10;65.70
10431;DHT22;5262;59.958;17.726;2023-07-13T13:23:52;24.30;66.30
10431;DHT22;5262;59.958;17.726;2023-07-13T13:26:19;23.90;66.70
10431;DHT22;5262;59.958;17.726;2023-07-13T13:28:46;23.80;69.50
10431;DHT22;5262;59.958;17.726;2023-07-13T13:31:13;23.40;67.70
10431;DHT22;5262;59.958;17.726;2023-07-13T13:33:45;23.20;69.20
10431;DHT22;5262;59.958;17.726;2023-07-13T13:36:16;23.90;67.40
10431;DHT22;5262;59.958;17.726;2023-07-13T13:38:42;24.40;68.10
10431;DHT22;5262;59.958;17.726;2023-07-13T13:41:13;24.50;63.50
10431;DHT22;5262;59.958;17.726;2023-07-13T13:45:47;24.10;61.40
10431;DHT22;5262;59.958;17.726;2023-07-13T13:48:18;23.70;65.10
10431;DHT22;5262;59.958;17.726;2023-07-13T13:50:44;23.50;66.10
10431;DHT22;5262;59.958;17.726;2023-07-13T13:53:12;23.70;64.40
10431;DHT22;5262;59.958;17.726;2023-07-13T13:55:39;23.90;65.20
10431;DHT22;5262;59.958;17.726;2023-07-13T13:58:10;23.50;64.20
10431;DHT22;5262;59.958;17.726;2023-07-13T14:00:37;23.70;65.80
10431;DHT22;5262;59.958;17.726;2023-07-13T14:03:03;24.00;63.30
10431;DHT22;5262;59.958;17.726;2023-07-13T14:05:29;24.10;64.30
10431;DHT22;5262;59.958;17.726;2023-07-13T14:07:56;24.40;63.10
10431;DHT22;5262;59.958;17.726;2023-07-13T14:10:22;24.40;65.70
10431;DHT22;5262;59.958;17.726;2023-07-13T14:12:52;24.00;63.80
10431;DHT22;5262;59.958;17.726;2023-07-13T14:15:25;23.70;64.60
10431;DHT22;5262;59.958;17.726;2023-07-13T14:17:53;23.80;64.50
10431;DHT22;5262;59.958;17.726;2023-07-13T14:20:20;23.70;64.40
10431;DHT22;5262;59.958;17.726;2023-07-13T14:22:47;23.30;65.70
10431;DHT22;5262;59.958;17.726;2023-07-13T14:25:15;23.50;67.10
10431;DHT22;5262;59.958;17.726;2023-07-13T14:27:42;23.10;66.50
10431;DHT22;5262;59.958;17.726;2023-07-13T14:30:17;22.90;66.30
10431;DHT22;5262;59.958;17.726;2023-07-13T14:32:43;22.70;66.60
10431;DHT22;5262;59.958;17.726;2023-07-13T14:35:13;22.70;67.30
10431;DHT22;5262;59.958;17.726;2023-07-13T14:37:40;22.80;69.90
10431;DHT22;5262;59.958;17.726;2023-07-13T14:40:35;22.80;67.60
10431;DHT22;5262;59.958;17.726;2023-07-13T14:43:01;22.60;69.50
10431;DHT22;5262;59.958;17.726;2023-07-13T14:45:28;22.70;70.20
10431;DHT22;5262;59.958;17.726;2023-07-13T14:47:54;22.60;68.20
10431;DHT22;5262;59.958;17.726;2023-07-13T14:50:23;22.50;69.40
10431;DHT22;5262;59.958;17.726;2023-07-13T14:52:50;22.70;69.30
10431;DHT22;5262;59.958;17.726;2023-07-13T14:55:18;23.00;69.20
10431;DHT22;5262;59.958;17.726;2023-07-13T14:57:44;23.10;69.60
10431;DHT22;5262;59.958;17.726;2023-07-13T15:00:20;23.00;68.90
10431;DHT22;5262;59.958;17.726;2023-07-13T15:02:51;23.00;69.00
10431;DHT22;5262;59.958;17.726;2023-07-13T15:05:22;23.10;69.50
10431;DHT22;5262;59.958;17.726;2023-07-13T15:07:50;23.10;70.50
10431;DHT22;5262;59.958;17.726;2023-07-13T15:10:18;23.20;67.80
10431;DHT22;5262;59.958;17.726;2023-07-13T15:12:44;23.10;67.90
10431;DHT22;5262;59.958;17.726;2023-07-13T15:15:10;22.80;65.40
10431;DHT22;5262;59.958;17.726;2023-07-13T15:17:45;22.80;65.30
10431;DHT22;5262;59.958;17.726;2023-07-13T15:20:23;22.60;63.20
10431;DHT22;5262;59.958;17.726;2023-07-13T15:22:50;22.70;63.90
10431;DHT22;5262;59.958;17.726;2023-07-13T15:25:27;22.50;63.40
10431;DHT22;5262;59.958;17.726;2023-07-13T15:27:55;22.60;64.40
10431;DHT22;5262;59.958;17.726;2023-07-13T15:30:21;22.80;64.60
10431;DHT22;5262;59.958;17.726;2023-07-13T15:32:48;22.70;63.70
10431;DHT22;5262;59.958;17.726;2023-07-13T15:35:19;22.60;63.00
10431;DHT22;5262;59.958;17.726;2023-07-13T15:37:46;22.70;63.80
10431;DHT22;5262;59.958;17.726;2023-07-13T15:40:12;22.60;63.70
10431;DHT22;5262;59.958;17.726;2023-07-13T15:42:40;22.60;66.90
10431;DHT22;5262;59.958;17.726;2023-07-13T15:45:18;22.60;65.90
10431;DHT22;5262;59.958;17.726;2023-07-13T15:47:45;22.60;64.60
10431;DHT22;5262;59.958;17.726;2023-07-13T15:50:15;22.60;64.90
10431;DHT22;5262;59.958;17.726;2023-07-13T15:52:41;22.50;62.20
10431;DHT22;5262;59.958;17.726;2023-07-13T15:55:11;22.60;63.50
10431;DHT22;5262;59.958;17.726;2023-07-13T15:57:38;22.60;63.60
10431;DHT22;5262;59.958;17.726;2023-07-13T16:00:16;22.60;64.80
10431;DHT22;5262;59.958;17.726;2023-07-13T16:02:43;22.50;65.50
10431;DHT22;5262;59.958;17.726;2023-07-13T16:05:09;22.50;66.30
10431;DHT22;5262;59.958;17.726;2023-07-13T16:07:34;22.40;67.60
10431;DHT22;5262;59.958;17.726;2023-07-13T16:10:00;22.50;68.90
10431;DHT22;5262;59.958;17.726;2023-07-13T16:12:26;22.40;68.90
10431;DHT22;5262;59.958;17.726;2023-07-13T16:14:53;22.40;70.00
10431;DHT22;5262;59.958;17.726;2023-07-13T16:17:18;22.40;68.60
10431;DHT22;5262;59.958;17.726;2023-07-13T16:19:45;22.30;68.00
10431;DHT22;5262;59.958;17.726;2023-07-13T16:22:17;22.20;67.60